sensor_id;sensor_type;location;lat;lon;timestamp;P1;durP1;ratioP1;P2;durP2;ratioP2
42006;SDS011;27696;42.704;23.304;2022-11-20T00:01:20;5.13;;;3.60;;
42006;SDS011;27696;42.704;23.304;2022-11-20T00:03:47;7.40;;;4.30;;
42006;SDS011;27696;42.704;23.304;2022-11-20T00:06:14;5.70;;;4.03;;
42006;SDS011;27696;42.704;23.304;2022-11-20T00:08:41;9.35;;;4.60;;
42006;SDS011;27696;42.704;23.304;2022-11-20T00:11:07;7.60;;;4.50;;
42006;SDS011;27696;42.704;23.304;2022-11-20T00:13:35;3.65;;;1.83;;
42006;SDS011;27696;42.704;23.304;2022-11-20T00:16:01;3.88;;;1.90;;
42006;SDS011;27696;42.704;23.304;2022-11-20T00:18:28;5.53;;;2.63;;
42006;SDS011;27696;42.704;23.304;2022-11-20T00:21:00;6.10;;;1.77;;
42006;SDS011;27696;42.704;23.304;2022-11-20T00:23:26;5.05;;;1.55;;
42006;SDS011;27696;42.704;23.304;2022-11-20T00:25:52;8.15;;;1.70;;
42006;SDS011;27696;42.704;23.304;2022-11-20T00:28:18;4.18;;;2.45;;
42006;SDS011;27696;42.704;23.304;2022-11-20T00:30:43;2.38;;;1.85;;
42006;SDS011;27696;42.704;23.304;2022-11-20T00:33:08;4.13;;;1.50;;
42006;SDS011;27696;42.704;23.304;2022-11-20T00:35:34;4.50;;;1.73;;
42006;SDS011;27696;42.704;23.304;2022-11-20T00:37:59;6.88;;;2.08;;
42006;SDS011;27696;42.704;23.304;2022-11-20T00:40:25;2.38;;;1.00;;
42006;SDS011;27696;42.704;23.304;2022-11-20T00:42:50;3.28;;;1.30;;
42006;SDS011;27696;42.704;23.304;2022-11-20T00:45:15;4.20;;;1.05;;
42006;SDS011;27696;42.704;23.304;2022-11-20T00:47:41;7.13;;;1.10;;
42006;SDS011;27696;42.704;23.304;2022-11-20T00:50:06;3.58;;;0.90;;
42006;SDS011;27696;42.704;23.304;2022-11-20T00:52:32;2.65;;;0.73;;
42006;SDS011;27696;42.704;23.304;2022-11-20T00:54:58;4.55;;;1.10;;
42006;SDS011;27696;42.704;23.304;2022-11-20T00:57:23;2.47;;;0.80;;
42006;SDS011;27696;42.704;23.304;2022-11-20T00:59:48;1.73;;;0.65;;
42006;SDS011;27696;42.704;23.304;2022-11-20T01:02:14;8.43;;;1.27;;
42006;SDS011;27696;42.704;23.304;2022-11-20T01:04:41;2.40;;;0.88;;
42006;SDS011;27696;42.704;23.304;2022-11-20T01:07:07;2.10;;;0.90;;
42006;SDS011;27696;42.704;23.304;2022-11-20T01:09:32;4.38;;;1.10;;
42006;SDS011;27696;42.704;23.304;2022-11-20T01:11:58;3.97;;;1.30;;
42006;SDS011;27696;42.704;23.304;2022-11-20T01:14:24;2.58;;;1.20;;
42006;SDS011;27696;42.704;23.304;2022-11-20T01:16:50;2.83;;;1.20;;
42006;SDS011;27696;42.704;23.304;2022-11-20T01:19:20;5.90;;;1.13;;
42006;SDS011;27696;42.704;23.304;2022-11-20T01:21:48;3.67;;;1.30;;
42006;SDS011;27696;42.704;23.304;2022-11-20T01:24:15;2.67;;;0.95;;
42006;SDS011;27696;42.704;23.304;2022-11-20T01:26:42;5.53;;;1.00;;
42006;SDS011;27696;42.704;23.304;2022-11-20T01:29:12;10.13;;;1.20;;
42006;SDS011;27696;42.704;23.304;2022-11-20T01:31:43;5.30;;;1.08;;
42006;SDS011;27696;42.704;23.304;2022-11-20T01:34:10;5.15;;;1.15;;
42006;SDS011;27696;42.704;23.304;2022-11-20T01:36:40;2.72;;;1.17;;
42006;SDS011;27696;42.704;23.304;2022-11-20T01:39:11;3.75;;;1.35;;
42006;SDS011;27696;42.704;23.304;2022-11-20T01:41:38;3.50;;;0.88;;
42006;SDS011;27696;42.704;23.304;2022-11-20T01:47:23;2.08;;;0.70;;
42006;SDS011;27696;42.704;23.304;2022-11-20T01:52:28;5.25;;;1.50;;
42006;SDS011;27696;42.704;23.304;2022-11-20T01:55:05;2.38;;;0.80;;
42006;SDS011;27696;42.704;23.304;2022-11-20T01:57:34;2.10;;;1.00;;
42006;SDS011;27696;42.704;23.304;2022-11-20T02:00:03;4.60;;;1.30;;
42006;SDS011;27696;42.704;23.304;2022-11-20T02:02:32;2.80;;;1.02;;
42006;SDS011;27696;42.704;23.304;2022-11-20T02:05:00;3.10;;;0.90;;
42006;SDS011;27696;42.704;23.304;2022-11-20T02:07:33;4.18;;;1.30;;
42006;SDS011;27696;42.704;23.304;2022-11-20T02:09:58;3.72;;;1.33;;
42006;SDS011;27696;42.704;23.304;2022-11-20T02:12:24;3.75;;;1.02;;
42006;SDS011;27696;42.704;23.304;2022-11-20T02:15:18;6.47;;;1.52;;
42006;SDS011;27696;42.704;23.304;2022-11-20T02:17:44;2.55;;;0.90;;
42006;SDS011;27696;42.704;23.304;2022-11-20T02:20:09;5.10;;;1.40;;
42006;SDS011;27696;42.704;23.304;2022-11-20T02:22:57;3.28;;;1.00;;
42006;SDS011;27696;42.704;23.304;2022-11-20T02:25:43;2.42;;;0.93;;
42006;SDS011;27696;42.704;23.304;2022-11-20T02:28:13;3.30;;;0.93;;
42006;SDS011;27696;42.704;23.304;2022-11-20T02:30:39;2.45;;;0.80;;
42006;SDS011;27696;42.704;23.304;2022-11-20T02:33:05;3.92;;;1.00;;
42006;SDS011;27696;42.704;23.304;2022-11-20T02:37:57;2.63;;;0.73;;
42006;SDS011;27696;42.704;23.304;2022-11-20T02:40:24;3.67;;;0.90;;
42006;SDS011;27696;42.704;23.304;2022-11-20T02:42:53;5.38;;;1.08;;
42006;SDS011;27696;42.704;23.304;2022-11-20T02:45:19;4.85;;;1.52;;
42006;SDS011;27696;42.704;23.304;2022-11-20T02:47:45;2.97;;;0.88;;
42006;SDS011;27696;42.704;23.304;2022-11-20T02:50:10;4.25;;;1.00;;
42006;SDS011;27696;42.704;23.304;2022-11-20T02:52:36;3.25;;;1.27;;
42006;SDS011;27696;42.704;23.304;2022-11-20T02:55:01;2.88;;;0.90;;
42006;SDS011;27696;42.704;23.304;2022-11-20T02:57:27;3.38;;;1.05;;
42006;SDS011;27696;42.704;23.304;2022-11-20T02:59:53;5.00;;;1.30;;
42006;SDS011;27696;42.704;23.304;2022-11-20T03:02:18;3.13;;;0.90;;
42006;SDS011;27696;42.704;23.304;2022-11-20T03:04:44;4.00;;;1.33;;
42006;SDS011;27696;42.704;23.304;2022-11-20T03:07:10;5.57;;;1.08;;
42006;SDS011;27696;42.704;23.304;2022-11-20T03:09:35;3.95;;;1.33;;
42006;SDS011;27696;42.704;23.304;2022-11-20T03:12:01;4.68;;;1.20;;
42006;SDS011;27696;42.704;23.304;2022-11-20T03:14:26;6.32;;;1.25;;
42006;SDS011;27696;42.704;23.304;2022-11-20T03:16:52;3.78;;;1.33;;
42006;SDS011;27696;42.704;23.304;2022-11-20T03:19:17;3.35;;;1.27;;
42006;SDS011;27696;42.704;23.304;2022-11-20T03:21:43;4.03;;;1.10;;
42006;SDS011;27696;42.704;23.304;2022-11-20T03:24:08;6.07;;;1.42;;
42006;SDS011;27696;42.704;23.304;2022-11-20T03:26:33;6.05;;;1.60;;
42006;SDS011;27696;42.704;23.304;2022-11-20T03:29:02;3.55;;;1.58;;
42006;SDS011;27696;42.704;23.304;2022-11-20T03:31:33;6.57;;;1.30;;
42006;SDS011;27696;42.704;23.304;2022-11-20T03:34:00;4.28;;;1.02;;
42006;SDS011;27696;42.704;23.304;2022-11-20T03:36:27;4.03;;;1.25;;
42006;SDS011;27696;42.704;23.304;2022-11-20T03:38:54;2.22;;;1.00;;
42006;SDS011;27696;42.704;23.304;2022-11-20T03:41:21;4.03;;;1.05;;
42006;SDS011;27696;42.704;23.304;2022-11-20T03:43:53;2.33;;;1.00;;
42006;SDS011;27696;42.704;23.304;2022-11-20T03:46:20;3.55;;;1.15;;
42006;SDS011;27696;42.704;23.304;2022-11-20T03:48:46;2.60;;;1.40;;
42006;SDS011;27696;42.704;23.304;2022-11-20T03:51:13;4.75;;;1.10;;
42006;SDS011;27696;42.704;23.304;2022-11-20T03:53:40;3.47;;;1.10;;
42006;SDS011;27696;42.704;23.304;2022-11-20T03:56:07;3.25;;;1.27;;
42006;SDS011;27696;42.704;23.304;2022-11-20T03:58:34;3.47;;;1.30;;
42006;SDS011;27696;42.704;23.304;2022-11-20T04:01:05;5.20;;;1.00;;
42006;SDS011;27696;42.704;23.304;2022-11-20T04:03:35;4.65;;;1.13;;
42006;SDS011;27696;42.704;23.304;2022-11-20T04:06:09;4.88;;;1.75;;
42006;SDS011;27696;42.704;23.304;2022-11-20T04:08:39;2.55;;;1.30;;
42006;SDS011;27696;42.704;23.304;2022-11-20T04:11:12;3.25;;;1.30;;
42006;SDS011;27696;42.704;23.304;2022-11-20T04:13:39;6.60;;;1.17;;
42006;SDS011;27696;42.704;23.304;2022-11-20T04:16:06;3.10;;;1.38;;
42006;SDS011;27696;42.704;23.304;2022-11-20T04:18:32;3.45;;;1.17;;
42006;SDS011;27696;42.704;23.304;2022-11-20T04:20:58;4.90;;;1.15;;
42006;SDS011;27696;42.704;23.304;2022-11-20T04:23:24;2.67;;;1.10;;
42006;SDS011;27696;42.704;23.304;2022-11-20T04:25:50;2.47;;;0.85;;
42006;SDS011;27696;42.704;23.304;2022-11-20T04:28:15;6.63;;;1.15;;
42006;SDS011;27696;42.704;23.304;2022-11-20T04:30:41;2.85;;;1.20;;
42006;SDS011;27696;42.704;23.304;2022-11-20T04:33:06;4.32;;;0.98;;
42006;SDS011;27696;42.704;23.304;2022-11-20T04:35:35;5.07;;;1.30;;
42006;SDS011;27696;42.704;23.304;2022-11-20T04:38:02;2.65;;;1.20;;
42006;SDS011;27696;42.704;23.304;2022-11-20T04:40:28;2.88;;;1.00;;
42006;SDS011;27696;42.704;23.304;2022-11-20T04:42:54;2.55;;;1.00;;
42006;SDS011;27696;42.704;23.304;2022-11-20T04:45:20;4.18;;;0.80;;
42006;SDS011;27696;42.704;23.304;2022-11-20T04:47:46;3.92;;;1.63;;
42006;SDS011;27696;42.704;23.304;2022-11-20T04:50:11;3.53;;;1.00;;
42006;SDS011;27696;42.704;23.304;2022-11-20T04:52:37;3.47;;;1.60;;
42006;SDS011;27696;42.704;23.304;2022-11-20T04:55:02;4.28;;;1.38;;
42006;SDS011;27696;42.704;23.304;2022-11-20T04:57:28;3.10;;;1.00;;
42006;SDS011;27696;42.704;23.304;2022-11-20T04:59:53;3.70;;;1.10;;
42006;SDS011;27696;42.704;23.304;2022-11-20T05:02:19;3.13;;;0.98;;
42006;SDS011;27696;42.704;23.304;2022-11-20T05:04:45;3.25;;;1.10;;
42006;SDS011;27696;42.704;23.304;2022-11-20T05:07:10;2.78;;;0.98;;
42006;SDS011;27696;42.704;23.304;2022-11-20T05:09:36;3.05;;;1.08;;
42006;SDS011;27696;42.704;23.304;2022-11-20T05:12:01;4.47;;;1.10;;
42006;SDS011;27696;42.704;23.304;2022-11-20T05:14:27;3.75;;;1.02;;
42006;SDS011;27696;42.704;23.304;2022-11-20T05:16:52;4.57;;;1.05;;
42006;SDS011;27696;42.704;23.304;2022-11-20T05:19:17;3.75;;;1.67;;
42006;SDS011;27696;42.704;23.304;2022-11-20T05:21:43;3.38;;;1.52;;
42006;SDS011;27696;42.704;23.304;2022-11-20T05:24:08;3.10;;;1.40;;
42006;SDS011;27696;42.704;23.304;2022-11-20T05:26:34;3.63;;;1.70;;
42006;SDS011;27696;42.704;23.304;2022-11-20T05:28:59;5.07;;;0.93;;
42006;SDS011;27696;42.704;23.304;2022-11-20T05:31:25;3.45;;;0.90;;
42006;SDS011;27696;42.704;23.304;2022-11-20T05:33:50;2.80;;;1.02;;
42006;SDS011;27696;42.704;23.304;2022-11-20T05:36:16;1.70;;;0.88;;
42006;SDS011;27696;42.704;23.304;2022-11-20T05:38:42;5.35;;;1.40;;
42006;SDS011;27696;42.704;23.304;2022-11-20T05:41:12;2.47;;;1.00;;
42006;SDS011;27696;42.704;23.304;2022-11-20T05:43:41;2.85;;;0.93;;
42006;SDS011;27696;42.704;23.304;2022-11-20T05:46:08;4.80;;;0.95;;
42006;SDS011;27696;42.704;23.304;2022-11-20T05:48:36;4.15;;;1.00;;
42006;SDS011;27696;42.704;23.304;2022-11-20T05:51:03;5.03;;;1.10;;
42006;SDS011;27696;42.704;23.304;2022-11-20T05:53:31;4.88;;;1.65;;
42006;SDS011;27696;42.704;23.304;2022-11-20T05:56:01;3.80;;;1.40;;
42006;SDS011;27696;42.704;23.304;2022-11-20T05:58:29;4.95;;;1.48;;
42006;SDS011;27696;42.704;23.304;2022-11-20T06:01:02;4.40;;;2.20;;
42006;SDS011;27696;42.704;23.304;2022-11-20T06:03:32;2.78;;;1.77;;
42006;SDS011;27696;42.704;23.304;2022-11-20T06:06:02;7.72;;;1.95;;
42006;SDS011;27696;42.704;23.304;2022-11-20T06:08:30;5.22;;;2.42;;
42006;SDS011;27696;42.704;23.304;2022-11-20T06:10:56;8.02;;;2.03;;
42006;SDS011;27696;42.704;23.304;2022-11-20T06:13:21;3.80;;;2.00;;
42006;SDS011;27696;42.704;23.304;2022-11-20T06:15:48;4.75;;;2.50;;
42006;SDS011;27696;42.704;23.304;2022-11-20T06:18:17;5.63;;;3.22;;
42006;SDS011;27696;42.704;23.304;2022-11-20T06:20:43;6.40;;;1.98;;
42006;SDS011;27696;42.704;23.304;2022-11-20T06:23:09;7.47;;;3.63;;
42006;SDS011;27696;42.704;23.304;2022-11-20T06:25:41;9.85;;;4.70;;
42006;SDS011;27696;42.704;23.304;2022-11-20T06:28:08;6.97;;;2.08;;
42006;SDS011;27696;42.704;23.304;2022-11-20T06:30:33;5.97;;;1.88;;
42006;SDS011;27696;42.704;23.304;2022-11-20T06:32:59;3.83;;;2.25;;
42006;SDS011;27696;42.704;23.304;2022-11-20T06:35:24;4.55;;;1.70;;
42006;SDS011;27696;42.704;23.304;2022-11-20T06:37:50;5.72;;;1.70;;
42006;SDS011;27696;42.704;23.304;2022-11-20T06:40:15;5.90;;;1.80;;
42006;SDS011;27696;42.704;23.304;2022-11-20T06:42:41;4.05;;;1.92;;
42006;SDS011;27696;42.704;23.304;2022-11-20T06:45:06;3.78;;;2.20;;
42006;SDS011;27696;42.704;23.304;2022-11-20T06:47:33;7.28;;;2.45;;
42006;SDS011;27696;42.704;23.304;2022-11-20T06:49:59;6.50;;;2.50;;
42006;SDS011;27696;42.704;23.304;2022-11-20T06:52:24;15.82;;;2.10;;
42006;SDS011;27696;42.704;23.304;2022-11-20T06:54:49;5.93;;;2.00;;
42006;SDS011;27696;42.704;23.304;2022-11-20T06:57:15;5.57;;;2.10;;
42006;SDS011;27696;42.704;23.304;2022-11-20T06:59:40;9.05;;;2.55;;
42006;SDS011;27696;42.704;23.304;2022-11-20T07:02:08;7.85;;;2.38;;
42006;SDS011;27696;42.704;23.304;2022-11-20T07:04:35;13.20;;;2.50;;
42006;SDS011;27696;42.704;23.304;2022-11-20T07:07:01;5.32;;;1.77;;
42006;SDS011;27696;42.704;23.304;2022-11-20T07:09:26;11.10;;;4.57;;
42006;SDS011;27696;42.704;23.304;2022-11-20T07:11:51;4.05;;;1.60;;
42006;SDS011;27696;42.704;23.304;2022-11-20T07:14:17;7.13;;;3.75;;
42006;SDS011;27696;42.704;23.304;2022-11-20T07:16:42;10.23;;;3.22;;
42006;SDS011;27696;42.704;23.304;2022-11-20T07:19:08;9.23;;;3.58;;
42006;SDS011;27696;42.704;23.304;2022-11-20T07:21:33;12.02;;;2.45;;
42006;SDS011;27696;42.704;23.304;2022-11-20T07:23:58;8.45;;;3.70;;
42006;SDS011;27696;42.704;23.304;2022-11-20T07:26:24;4.43;;;1.60;;
42006;SDS011;27696;42.704;23.304;2022-11-20T07:28:49;5.07;;;1.77;;
42006;SDS011;27696;42.704;23.304;2022-11-20T07:31:15;4.90;;;1.77;;
42006;SDS011;27696;42.704;23.304;2022-11-20T07:33:40;4.22;;;1.85;;
42006;SDS011;27696;42.704;23.304;2022-11-20T07:36:06;7.47;;;2.70;;
42006;SDS011;27696;42.704;23.304;2022-11-20T07:38:31;9.13;;;2.97;;
42006;SDS011;27696;42.704;23.304;2022-11-20T07:40:58;7.78;;;2.22;;
42006;SDS011;27696;42.704;23.304;2022-11-20T07:43:26;11.75;;;2.67;;
42006;SDS011;27696;42.704;23.304;2022-11-20T07:45:54;5.40;;;2.80;;
42006;SDS011;27696;42.704;23.304;2022-11-20T07:48:20;6.30;;;2.72;;
42006;SDS011;27696;42.704;23.304;2022-11-20T07:50:45;5.93;;;1.98;;
42006;SDS011;27696;42.704;23.304;2022-11-20T07:53:11;7.57;;;2.78;;
42006;SDS011;27696;42.704;23.304;2022-11-20T07:55:37;4.40;;;1.63;;
42006;SDS011;27696;42.704;23.304;2022-11-20T07:58:03;4.60;;;2.33;;
42006;SDS011;27696;42.704;23.304;2022-11-20T08:00:28;6.05;;;2.22;;
42006;SDS011;27696;42.704;23.304;2022-11-20T08:02:53;5.85;;;2.17;;
42006;SDS011;27696;42.704;23.304;2022-11-20T08:05:19;6.70;;;2.67;;
42006;SDS011;27696;42.704;23.304;2022-11-20T08:07:44;11.07;;;3.22;;
42006;SDS011;27696;42.704;23.304;2022-11-20T08:10:11;11.00;;;4.63;;
42006;SDS011;27696;42.704;23.304;2022-11-20T08:12:45;5.93;;;3.03;;
42006;SDS011;27696;42.704;23.304;2022-11-20T08:15:32;7.53;;;2.70;;
42006;SDS011;27696;42.704;23.304;2022-11-20T08:17:59;12.02;;;3.38;;
42006;SDS011;27696;42.704;23.304;2022-11-20T08:20:37;6.28;;;2.83;;
42006;SDS011;27696;42.704;23.304;2022-11-20T08:23:04;7.15;;;3.30;;
42006;SDS011;27696;42.704;23.304;2022-11-20T08:25:31;7.72;;;3.03;;
42006;SDS011;27696;42.704;23.304;2022-11-20T08:27:58;5.68;;;2.75;;
42006;SDS011;27696;42.704;23.304;2022-11-20T08:30:24;10.15;;;3.22;;
42006;SDS011;27696;42.704;23.304;2022-11-20T08:32:50;9.80;;;4.07;;
42006;SDS011;27696;42.704;23.304;2022-11-20T08:35:16;7.20;;;3.05;;
42006;SDS011;27696;42.704;23.304;2022-11-20T08:37:41;9.75;;;4.90;;
42006;SDS011;27696;42.704;23.304;2022-11-20T08:40:10;7.60;;;3.40;;
42006;SDS011;27696;42.704;23.304;2022-11-20T08:42:36;12.88;;;4.30;;
42006;SDS011;27696;42.704;23.304;2022-11-20T08:45:01;15.48;;;9.82;;
42006;SDS011;27696;42.704;23.304;2022-11-20T08:47:27;8.00;;;3.60;;
42006;SDS011;27696;42.704;23.304;2022-11-20T08:49:53;6.05;;;1.92;;
42006;SDS011;27696;42.704;23.304;2022-11-20T08:52:18;6.75;;;1.50;;
42006;SDS011;27696;42.704;23.304;2022-11-20T08:54:44;5.53;;;1.60;;
42006;SDS011;27696;42.704;23.304;2022-11-20T08:57:09;7.90;;;2.10;;
42006;SDS011;27696;42.704;23.304;2022-11-20T08:59:35;9.80;;;2.47;;
42006;SDS011;27696;42.704;23.304;2022-11-20T09:02:00;13.25;;;2.67;;
42006;SDS011;27696;42.704;23.304;2022-11-20T09:04:25;9.40;;;2.40;;
42006;SDS011;27696;42.704;23.304;2022-11-20T09:06:51;10.00;;;3.42;;
42006;SDS011;27696;42.704;23.304;2022-11-20T09:09:17;12.73;;;3.05;;
42006;SDS011;27696;42.704;23.304;2022-11-20T09:11:43;7.70;;;3.13;;
42006;SDS011;27696;42.704;23.304;2022-11-20T09:14:09;11.32;;;3.40;;
42006;SDS011;27696;42.704;23.304;2022-11-20T09:16:34;11.57;;;3.40;;
42006;SDS011;27696;42.704;23.304;2022-11-20T09:19:00;8.68;;;2.85;;
42006;SDS011;27696;42.704;23.304;2022-11-20T09:21:25;8.45;;;4.35;;
42006;SDS011;27696;42.704;23.304;2022-11-20T09:23:50;12.25;;;3.05;;
42006;SDS011;27696;42.704;23.304;2022-11-20T09:26:16;10.68;;;3.25;;
42006;SDS011;27696;42.704;23.304;2022-11-20T09:28:41;6.45;;;2.90;;
42006;SDS011;27696;42.704;23.304;2022-11-20T09:31:07;3.63;;;1.50;;
42006;SDS011;27696;42.704;23.304;2022-11-20T09:33:35;5.30;;;1.67;;
42006;SDS011;27696;42.704;23.304;2022-11-20T09:36:00;5.07;;;1.50;;
42006;SDS011;27696;42.704;23.304;2022-11-20T09:38:26;11.10;;;2.35;;
42006;SDS011;27696;42.704;23.304;2022-11-20T09:41:00;5.95;;;2.22;;
42006;SDS011;27696;42.704;23.304;2022-11-20T09:51:30;6.35;;;2.28;;
42006;SDS011;27696;42.704;23.304;2022-11-20T09:54:16;7.80;;;2.97;;
42006;SDS011;27696;42.704;23.304;2022-11-20T09:56:43;10.77;;;3.50;;
42006;SDS011;27696;42.704;23.304;2022-11-20T09:59:45;9.82;;;3.38;;
42006;SDS011;27696;42.704;23.304;2022-11-20T10:02:15;7.53;;;3.03;;
42006;SDS011;27696;42.704;23.304;2022-11-20T10:05:04;8.60;;;3.17;;
42006;SDS011;27696;42.704;23.304;2022-11-20T10:07:37;9.07;;;3.60;;
42006;SDS011;27696;42.704;23.304;2022-11-20T10:10:33;7.78;;;3.00;;
42006;SDS011;27696;42.704;23.304;2022-11-20T10:18:58;6.53;;;2.67;;
42006;SDS011;27696;42.704;23.304;2022-11-20T10:30:17;6.80;;;2.70;;
42006;SDS011;27696;42.704;23.304;2022-11-20T10:32:47;14.02;;;6.38;;
42006;SDS011;27696;42.704;23.304;2022-11-20T10:37:56;8.75;;;3.25;;
42006;SDS011;27696;42.704;23.304;2022-11-20T10:42:57;9.80;;;3.47;;
42006;SDS011;27696;42.704;23.304;2022-11-20T10:45:55;9.77;;;4.20;;
42006;SDS011;27696;42.704;23.304;2022-11-20T10:48:24;12.02;;;3.45;;
42006;SDS011;27696;42.704;23.304;2022-11-20T10:53:56;13.95;;;3.53;;
42006;SDS011;27696;42.704;23.304;2022-11-20T10:56:25;11.90;;;3.90;;
42006;SDS011;27696;42.704;23.304;2022-11-20T11:04:45;12.52;;;3.42;;
42006;SDS011;27696;42.704;23.304;2022-11-20T11:09:43;8.65;;;1.80;;
42006;SDS011;27696;42.704;23.304;2022-11-20T11:12:13;8.65;;;1.60;;
42006;SDS011;27696;42.704;23.304;2022-11-20T11:14:46;8.32;;;1.30;;
42006;SDS011;27696;42.704;23.304;2022-11-20T11:20:02;4.55;;;1.65;;
42006;SDS011;27696;42.704;23.304;2022-11-20T11:25:55;3.10;;;1.25;;
42006;SDS011;27696;42.704;23.304;2022-11-20T11:28:18;4.10;;;1.15;;
42006;SDS011;27696;42.704;23.304;2022-11-20T11:30:47;3.30;;;1.60;;
42006;SDS011;27696;42.704;23.304;2022-11-20T11:33:22;5.63;;;1.60;;
42006;SDS011;27696;42.704;23.304;2022-11-20T11:35:49;5.50;;;1.60;;
42006;SDS011;27696;42.704;23.304;2022-11-20T11:38:21;4.22;;;2.08;;
42006;SDS011;27696;42.704;23.304;2022-11-20T11:40:53;5.53;;;2.00;;
42006;SDS011;27696;42.704;23.304;2022-11-20T11:43:21;4.22;;;1.60;;
42006;SDS011;27696;42.704;23.304;2022-11-20T11:51:39;4.68;;;1.50;;
42006;SDS011;27696;42.704;23.304;2022-11-20T11:54:26;3.95;;;1.70;;
42006;SDS011;27696;42.704;23.304;2022-11-20T11:56:53;5.15;;;1.60;;
42006;SDS011;27696;42.704;23.304;2022-11-20T11:59:27;7.47;;;1.65;;
42006;SDS011;27696;42.704;23.304;2022-11-20T12:02:11;7.68;;;1.40;;
42006;SDS011;27696;42.704;23.304;2022-11-20T12:04:50;5.75;;;1.45;;
42006;SDS011;27696;42.704;23.304;2022-11-20T12:07:29;4.55;;;1.58;;
42006;SDS011;27696;42.704;23.304;2022-11-20T12:10:40;3.90;;;1.60;;
42006;SDS011;27696;42.704;23.304;2022-11-20T12:13:30;11.13;;;1.60;;
42006;SDS011;27696;42.704;23.304;2022-11-20T12:16:05;7.00;;;1.65;;
42006;SDS011;27696;42.704;23.304;2022-11-20T12:18:30;5.28;;;1.60;;
42006;SDS011;27696;42.704;23.304;2022-11-20T12:26:51;10.68;;;1.85;;
42006;SDS011;27696;42.704;23.304;2022-11-20T12:37:35;6.13;;;1.50;;
42006;SDS011;27696;42.704;23.304;2022-11-20T12:40:07;7.45;;;1.58;;
42006;SDS011;27696;42.704;23.304;2022-11-20T12:56:11;9.70;;;3.65;;
42006;SDS011;27696;42.704;23.304;2022-11-20T13:01:40;8.40;;;6.18;;
42006;SDS011;27696;42.704;23.304;2022-11-20T13:06:49;8.30;;;3.45;;
42006;SDS011;27696;42.704;23.304;2022-11-20T13:09:16;8.18;;;3.65;;
42006;SDS011;27696;42.704;23.304;2022-11-20T13:14:50;8.23;;;3.38;;
42006;SDS011;27696;42.704;23.304;2022-11-20T13:20:05;8.95;;;2.70;;
42006;SDS011;27696;42.704;23.304;2022-11-20T13:25:09;11.55;;;7.60;;
42006;SDS011;27696;42.704;23.304;2022-11-20T13:27:35;20.67;;;15.60;;
42006;SDS011;27696;42.704;23.304;2022-11-20T13:30:15;13.48;;;8.23;;
42006;SDS011;27696;42.704;23.304;2022-11-20T13:35:30;7.57;;;4.22;;
42006;SDS011;27696;42.704;23.304;2022-11-20T13:38:02;4.93;;;3.60;;
42006;SDS011;27696;42.704;23.304;2022-11-20T13:40:50;5.80;;;2.85;;
42006;SDS011;27696;42.704;23.304;2022-11-20T13:43:33;9.18;;;2.42;;
42006;SDS011;27696;42.704;23.304;2022-11-20T13:46:06;7.55;;;2.45;;
42006;SDS011;27696;42.704;23.304;2022-11-20T13:48:38;9.02;;;2.92;;
42006;SDS011;27696;42.704;23.304;2022-11-20T13:51:16;4.88;;;3.10;;
42006;SDS011;27696;42.704;23.304;2022-11-20T13:54:07;6.70;;;3.28;;
42006;SDS011;27696;42.704;23.304;2022-11-20T13:57:07;10.20;;;3.60;;
42006;SDS011;27696;42.704;23.304;2022-11-20T14:02:17;8.15;;;3.58;;
42006;SDS011;27696;42.704;23.304;2022-11-20T14:04:54;7.78;;;3.50;;
42006;SDS011;27696;42.704;23.304;2022-11-20T14:07:24;9.00;;;3.35;;
42006;SDS011;27696;42.704;23.304;2022-11-20T14:09:56;8.05;;;4.05;;
42006;SDS011;27696;42.704;23.304;2022-11-20T14:12:32;12.13;;;5.22;;
42006;SDS011;27696;42.704;23.304;2022-11-20T14:14:59;12.70;;;6.03;;
42006;SDS011;27696;42.704;23.304;2022-11-20T14:17:32;12.82;;;6.50;;
42006;SDS011;27696;42.704;23.304;2022-11-20T14:20:00;11.93;;;7.18;;
42006;SDS011;27696;42.704;23.304;2022-11-20T14:22:30;12.63;;;6.70;;
42006;SDS011;27696;42.704;23.304;2022-11-20T14:27:37;7.22;;;4.30;;
42006;SDS011;27696;42.704;23.304;2022-11-20T14:30:04;6.53;;;3.20;;
42006;SDS011;27696;42.704;23.304;2022-11-20T14:32:31;7.00;;;3.63;;
42006;SDS011;27696;42.704;23.304;2022-11-20T14:35:02;8.20;;;4.20;;
42006;SDS011;27696;42.704;23.304;2022-11-20T14:37:35;6.22;;;3.30;;
42006;SDS011;27696;42.704;23.304;2022-11-20T14:40:05;4.15;;;2.63;;
42006;SDS011;27696;42.704;23.304;2022-11-20T14:42:46;5.78;;;2.80;;
42006;SDS011;27696;42.704;23.304;2022-11-20T14:45:12;6.10;;;4.22;;
42006;SDS011;27696;42.704;23.304;2022-11-20T14:47:38;5.18;;;2.75;;
42006;SDS011;27696;42.704;23.304;2022-11-20T14:50:07;6.60;;;3.25;;
42006;SDS011;27696;42.704;23.304;2022-11-20T14:52:49;6.78;;;4.65;;
42006;SDS011;27696;42.704;23.304;2022-11-20T14:55:28;6.82;;;3.20;;
42006;SDS011;27696;42.704;23.304;2022-11-20T14:58:01;6.28;;;3.20;;
42006;SDS011;27696;42.704;23.304;2022-11-20T15:00:28;6.60;;;3.08;;
42006;SDS011;27696;42.704;23.304;2022-11-20T15:02:54;5.00;;;2.80;;
42006;SDS011;27696;42.704;23.304;2022-11-20T15:05:21;5.72;;;2.78;;
42006;SDS011;27696;42.704;23.304;2022-11-20T15:07:51;6.32;;;2.90;;
42006;SDS011;27696;42.704;23.304;2022-11-20T15:10:37;5.72;;;3.45;;
42006;SDS011;27696;42.704;23.304;2022-11-20T15:13:11;4.75;;;3.53;;
42006;SDS011;27696;42.704;23.304;2022-11-20T15:15:48;5.85;;;3.53;;
42006;SDS011;27696;42.704;23.304;2022-11-20T15:18:19;5.07;;;3.22;;
42006;SDS011;27696;42.704;23.304;2022-11-20T15:20:52;7.65;;;3.70;;
42006;SDS011;27696;42.704;23.304;2022-11-20T15:23:20;5.40;;;2.83;;
42006;SDS011;27696;42.704;23.304;2022-11-20T15:25:46;4.78;;;2.72;;
42006;SDS011;27696;42.704;23.304;2022-11-20T15:28:17;7.43;;;4.18;;
42006;SDS011;27696;42.704;23.304;2022-11-20T15:30:48;7.40;;;2.38;;
42006;SDS011;27696;42.704;23.304;2022-11-20T15:33:15;4.50;;;2.67;;
42006;SDS011;27696;42.704;23.304;2022-11-20T15:35:41;6.35;;;3.05;;
42006;SDS011;27696;42.704;23.304;2022-11-20T15:38:07;4.45;;;2.47;;
42006;SDS011;27696;42.704;23.304;2022-11-20T15:40:33;2.90;;;1.75;;
42006;SDS011;27696;42.704;23.304;2022-11-20T15:42:59;5.50;;;2.08;;
42006;SDS011;27696;42.704;23.304;2022-11-20T15:45:28;6.13;;;2.13;;
42006;SDS011;27696;42.704;23.304;2022-11-20T15:47:59;7.43;;;2.95;;
42006;SDS011;27696;42.704;23.304;2022-11-20T15:50:27;5.80;;;2.65;;
42006;SDS011;27696;42.704;23.304;2022-11-20T15:52:59;6.60;;;2.65;;
42006;SDS011;27696;42.704;23.304;2022-11-20T15:55:24;6.63;;;2.60;;
42006;SDS011;27696;42.704;23.304;2022-11-20T15:57:50;3.85;;;2.30;;
42006;SDS011;27696;42.704;23.304;2022-11-20T16:00:15;4.45;;;2.60;;
42006;SDS011;27696;42.704;23.304;2022-11-20T16:02:41;5.53;;;2.83;;
42006;SDS011;27696;42.704;23.304;2022-11-20T16:05:09;7.63;;;3.17;;
42006;SDS011;27696;42.704;23.304;2022-11-20T16:07:37;6.20;;;2.88;;
42006;SDS011;27696;42.704;23.304;2022-11-20T16:10:02;5.55;;;2.78;;
42006;SDS011;27696;42.704;23.304;2022-11-20T16:12:29;6.65;;;3.10;;
42006;SDS011;27696;42.704;23.304;2022-11-20T16:15:13;9.17;;;4.33;;
42006;SDS011;27696;42.704;23.304;2022-11-20T16:17:57;7.75;;;3.67;;
42006;SDS011;27696;42.704;23.304;2022-11-20T16:20:22;9.90;;;4.25;;
42006;SDS011;27696;42.704;23.304;2022-11-20T16:22:48;9.77;;;4.90;;
42006;SDS011;27696;42.704;23.304;2022-11-20T16:25:13;8.70;;;4.82;;
42006;SDS011;27696;42.704;23.304;2022-11-20T16:27:39;8.30;;;4.78;;
42006;SDS011;27696;42.704;23.304;2022-11-20T16:30:04;5.63;;;2.17;;
42006;SDS011;27696;42.704;23.304;2022-11-20T16:32:30;6.57;;;3.55;;